sensor_id;sensor_type;location;lat;lon;timestamp;pressure;altitude;pressure_sealevel;temperature;humidity
18697;BME280;22617;43.690;27.956;2023-05-25T00:02:10;98727.81;;;14.67;76.88
18697;BME280;22617;43.690;27.956;2023-05-25T00:07:18;98726.34;;;14.56;76.77
18697;BME280;22617;43.690;27.956;2023-05-25T00:12:21;98725.13;;;14.69;76.82
18697;BME280;22617;43.690;27.956;2023-05-25T00:17:25;98725.25;;;14.64;76.68
18697;BME280;22617;43.690;27.956;2023-05-25T00:22:34;98724.38;;;14.64;76.32
18697;BME280;22617;43.690;27.956;2023-05-25T00:27:38;98736.75;;;14.59;76.40
18697;BME280;22617;43.690;27.956;2023-05-25T00:32:41;98736.16;;;14.48;76.94
18697;BME280;22617;43.690;27.956;2023-05-25T00:37:46;98739.69;;;14.45;76.86
18697;BME280;22617;43.690;27.956;2023-05-25T00:42:52;98727.84;;;14.29;76.80
18697;BME280;22617;43.690;27.956;2023-05-25T00:47:57;98736.75;;;14.20;77.61
18697;BME280;22617;43.690;27.956;2023-05-25T00:53:03;98728.84;;;14.23;78.17
18697;BME280;22617;43.690;27.956;2023-05-25T00:58:07;98732.25;;;14.25;77.77
18697;BME280;22617;43.690;27.956;2023-05-25T01:03:14;98735.19;;;14.12;77.55
18697;BME280;22617;43.690;27.956;2023-05-25T01:08:25;98736.47;;;13.94;78.12
18697;BME280;22617;43.690;27.956;2023-05-25T01:13:31;98730.94;;;14.06;78.20
18697;BME280;22617;43.690;27.956;2023-05-25T01:18:34;98732.47;;;14.16;77.68
18697;BME280;22617;43.690;27.956;2023-05-25T01:23:46;98722.34;;;14.39;77.61
18697;BME280;22617;43.690;27.956;2023-05-25T01:28:54;98713.25;;;14.54;76.89
18697;BME280;22617;43.690;27.956;2023-05-25T01:33:58;98713.94;;;14.62;76.70
18697;BME280;22617;43.690;27.956;2023-05-25T01:39:05;98706.97;;;14.61;77.48
18697;BME280;22617;43.690;27.956;2023-05-25T01:44:08;98709.50;;;14.64;77.05
18697;BME280;22617;43.690;27.956;2023-05-25T01:49:18;98703.63;;;14.55;76.48
18697;BME280;22617;43.690;27.956;2023-05-25T01:54:30;98713.78;;;14.31;76.92
18697;BME280;22617;43.690;27.956;2023-05-25T01:59:41;98713.00;;;14.28;77.99
18697;BME280;22617;43.690;27.956;2023-05-25T02:04:46;98720.22;;;14.18;78.49
18697;BME280;22617;43.690;27.956;2023-05-25T02:09:51;98717.91;;;14.05;78.13
18697;BME280;22617;43.690;27.956;2023-05-25T02:14:55;98718.78;;;14.04;78.94
18697;BME280;22617;43.690;27.956;2023-05-25T02:19:59;98718.94;;;13.96;79.75
18697;BME280;22617;43.690;27.956;2023-05-25T02:25:07;98716.44;;;13.91;79.59
18697;BME280;22617;43.690;27.956;2023-05-25T02:30:11;98720.81;;;13.91;79.74
18697;BME280;22617;43.690;27.956;2023-05-25T02:35:15;98738.22;;;13.95;79.57
18697;BME280;22617;43.690;27.956;2023-05-25T02:40:20;98738.34;;;13.89;79.06
18697;BME280;22617;43.690;27.956;2023-05-25T02:45:24;98741.03;;;13.86;79.61
18697;BME280;22617;43.690;27.956;2023-05-25T02:50:28;98748.78;;;13.90;79.66
18697;BME280;22617;43.690;27.956;2023-05-25T02:55:36;98751.53;;;13.84;79.46
18697;BME280;22617;43.690;27.956;2023-05-25T03:00:44;98764.84;;;13.74;79.46
18697;BME280;22617;43.690;27.956;2023-05-25T03:05:49;98764.72;;;13.80;79.49
18697;BME280;22617;43.690;27.956;2023-05-25T03:10:54;98763.78;;;13.84;80.34
18697;BME280;22617;43.690;27.956;2023-05-25T03:15:58;98767.97;;;13.91;80.48
18697;BME280;22617;43.690;27.956;2023-05-25T03:21:02;98767.94;;;13.92;79.95
18697;BME280;22617;43.690;27.956;2023-05-25T03:26:07;98768.81;;;13.93;79.95
18697;BME280;22617;43.690;27.956;2023-05-25T03:31:12;98770.66;;;13.88;81.18
18697;BME280;22617;43.690;27.956;2023-05-25T03:36:16;98771.31;;;13.99;82.09
18697;BME280;22617;43.690;27.956;2023-05-25T03:41:21;98774.41;;;14.16;81.63
18697;BME280;22617;43.690;27.956;2023-05-25T03:46:26;98773.03;;;14.40;81.34
18697;BME280;22617;43.690;27.956;2023-05-25T03:51:31;98768.91;;;14.67;80.53
18697;BME280;22617;43.690;27.956;2023-05-25T03:56:36;98782.00;;;15.02;81.06
18697;BME280;22617;43.690;27.956;2023-05-25T04:01:39;98776.25;;;15.22;82.89
18697;BME280;22617;43.690;27.956;2023-05-25T04:06:43;98783.72;;;15.37;83.99
18697;BME280;22617;43.690;27.956;2023-05-25T04:11:51;98786.00;;;15.49;84.06
18697;BME280;22617;43.690;27.956;2023-05-25T04:16:55;98784.09;;;15.57;83.89
18697;BME280;22617;43.690;27.956;2023-05-25T04:21:58;98783.72;;;15.69;84.22
18697;BME280;22617;43.690;27.956;2023-05-25T04:27:04;98797.53;;;15.78;84.54
18697;BME280;22617;43.690;27.956;2023-05-25T04:32:09;98796.31;;;15.89;84.75
18697;BME280;22617;43.690;27.956;2023-05-25T04:37:21;98799.44;;;16.02;84.37
18697;BME280;22617;43.690;27.956;2023-05-25T04:42:26;98807.31;;;16.31;85.04
18697;BME280;22617;43.690;27.956;2023-05-25T04:47:30;98799.44;;;16.61;85.14
18697;BME280;22617;43.690;27.956;2023-05-25T04:52:35;98811.63;;;16.91;84.16
18697;BME280;22617;43.690;27.956;2023-05-25T04:57:41;98814.84;;;17.25;84.79
18697;BME280;22617;43.690;27.956;2023-05-25T05:02:44;98806.44;;;17.40;84.07
18697;BME280;22617;43.690;27.956;2023-05-25T05:07:48;98814.88;;;17.50;84.15
18697;BME280;22617;43.690;27.956;2023-05-25T05:12:55;98806.72;;;17.82;83.90
18697;BME280;22617;43.690;27.956;2023-05-25T05:17:58;98814.75;;;18.26;81.51
18697;BME280;22617;43.690;27.956;2023-05-25T05:23:03;98826.00;;;18.54;79.65
18697;BME280;22617;43.690;27.956;2023-05-25T05:28:09;98829.31;;;18.81;79.09
18697;BME280;22617;43.690;27.956;2023-05-25T05:33:14;98829.63;;;18.95;79.16
18697;BME280;22617;43.690;27.956;2023-05-25T05:38:20;98834.66;;;19.01;77.29
18697;BME280;22617;43.690;27.956;2023-05-25T05:43:25;98840.97;;;19.19;78.32
18697;BME280;22617;43.690;27.956;2023-05-25T05:48:29;98842.38;;;19.49;78.42
18697;BME280;22617;43.690;27.956;2023-05-25T05:53:33;98841.13;;;19.78;76.02
18697;BME280;22617;43.690;27.956;2023-05-25T05:58:39;98843.09;;;19.93;73.67
18697;BME280;22617;43.690;27.956;2023-05-25T06:03:43;98857.72;;;20.21;72.06
18697;BME280;22617;43.690;27.956;2023-05-25T06:08:48;98854.97;;;20.24;71.96
18697;BME280;22617;43.690;27.956;2023-05-25T06:13:53;98854.00;;;20.64;71.95
18697;BME280;22617;43.690;27.956;2023-05-25T06:18:58;98854.81;;;21.02;70.20
18697;BME280;22617;43.690;27.956;2023-05-25T06:24:03;98852.25;;;21.36;66.97
18697;BME280;22617;43.690;27.956;2023-05-25T06:29:08;98849.16;;;21.62;66.24
18697;BME280;22617;43.690;27.956;2023-05-25T06:34:12;98847.38;;;22.13;66.03
18697;BME280;22617;43.690;27.956;2023-05-25T06:39:16;98847.78;;;22.38;65.91
18697;BME280;22617;43.690;27.956;2023-05-25T06:44:21;98847.25;;;22.80;63.56
18697;BME280;22617;43.690;27.956;2023-05-25T06:49:27;98857.94;;;23.26;64.69
18697;BME280;22617;43.690;27.956;2023-05-25T06:54:30;98845.84;;;23.66;63.77
18697;BME280;22617;43.690;27.956;2023-05-25T06:59:35;98853.41;;;23.58;61.09
18697;BME280;22617;43.690;27.956;2023-05-25T07:04:39;98856.69;;;23.31;62.42
18697;BME280;22617;43.690;27.956;2023-05-25T07:09:43;98848.97;;;23.58;61.92
18697;BME280;22617;43.690;27.956;2023-05-25T07:14:48;98843.22;;;24.08;60.37
18697;BME280;22617;43.690;27.956;2023-05-25T07:19:51;98849.75;;;24.18;60.88
18697;BME280;22617;43.690;27.956;2023-05-25T07:24:55;98842.00;;;24.56;61.17
18697;BME280;22617;43.690;27.956;2023-05-25T07:30:00;98846.28;;;24.87;59.28
18697;BME280;22617;43.690;27.956;2023-05-25T07:35:06;98854.66;;;25.22;56.70
18697;BME280;22617;43.690;27.956;2023-05-25T07:40:10;98852.94;;;25.21;56.71
18697;BME280;22617;43.690;27.956;2023-05-25T07:45:15;98848.41;;;25.36;57.28
18697;BME280;22617;43.690;27.956;2023-05-25T07:50:19;98841.19;;;25.24;54.52
18697;BME280;22617;43.690;27.956;2023-05-25T07:55:25;98846.28;;;25.41;54.53
18697;BME280;22617;43.690;27.956;2023-05-25T08:00:30;98843.91;;;25.63;56.11
18697;BME280;22617;43.690;27.956;2023-05-25T08:05:33;98832.72;;;25.83;53.41
18697;BME280;22617;43.690;27.956;2023-05-25T08:10:37;98838.78;;;25.60;53.34
18697;BME280;22617;43.690;27.956;2023-05-25T08:15:42;98830.81;;;25.98;54.29
18697;BME280;22617;43.690;27.956;2023-05-25T08:20:46;98822.16;;;25.94;53.65
18697;BME280;22617;43.690;27.956;2023-05-25T08:25:50;98823.94;;;25.81;54.29
18697;BME280;22617;43.690;27.956;2023-05-25T08:30:55;98825.47;;;25.46;53.71
18697;BME280;22617;43.690;27.956;2023-05-25T08:35:59;98810.44;;;26.71;53.58
18697;BME280;22617;43.690;27.956;2023-05-25T08:41:04;98802.38;;;27.08;50.87
18697;BME280;22617;43.690;27.956;2023-05-25T08:46:10;98802.28;;;26.24;50.45
18697;BME280;22617;43.690;27.956;2023-05-25T08:51:15;98796.81;;;27.11;50.38
18697;BME280;22617;43.690;27.956;2023-05-25T08:56:19;98794.44;;;28.00;48.50
18697;BME280;22617;43.690;27.956;2023-05-25T09:01:27;98796.13;;;28.01;48.11
18697;BME280;22617;43.690;27.956;2023-05-25T09:06:34;98797.53;;;27.37;47.18
18697;BME280;22617;43.690;27.956;2023-05-25T09:11:40;98785.81;;;27.26;48.24
18697;BME280;22617;43.690;27.956;2023-05-25T09:16:49;98783.66;;;26.10;49.97
18697;BME280;22617;43.690;27.956;2023-05-25T09:21:52;98786.91;;;25.37;52.01
18697;BME280;22617;43.690;27.956;2023-05-25T09:27:16;98790.94;;;24.91;51.74
18697;BME280;22617;43.690;27.956;2023-05-25T09:32:22;98790.50;;;24.56;54.35
18697;BME280;22617;43.690;27.956;2023-05-25T09:37:26;98801.38;;;24.53;54.63
18697;BME280;22617;43.690;27.956;2023-05-25T09:42:30;98801.59;;;23.93;57.98
18697;BME280;22617;43.690;27.956;2023-05-25T09:47:36;98788.38;;;23.48;59.49
18697;BME280;22617;43.690;27.956;2023-05-25T09:52:43;98802.88;;;23.12;61.14
18697;BME280;22617;43.690;27.956;2023-05-25T09:57:52;98846.78;;;22.56;63.51
18697;BME280;22617;43.690;27.956;2023-05-25T10:02:57;98847.72;;;22.07;67.16
18697;BME280;22617;43.690;27.956;2023-05-25T10:08:00;98871.44;;;21.24;70.37
18697;BME280;22617;43.690;27.956;2023-05-25T10:13:07;98861.28;;;20.40;74.02
18697;BME280;22617;43.690;27.956;2023-05-25T10:18:13;98825.03;;;19.63;80.88
18697;BME280;22617;43.690;27.956;2023-05-25T10:23:18;98846.84;;;19.47;79.11
18697;BME280;22617;43.690;27.956;2023-05-25T10:28:27;98832.66;;;19.28;76.95
18697;BME280;22617;43.690;27.956;2023-05-25T10:33:33;98833.63;;;19.05;77.97
18697;BME280;22617;43.690;27.956;2023-05-25T10:38:38;98834.50;;;18.84;76.82
18697;BME280;22617;43.690;27.956;2023-05-25T10:43:43;98836.25;;;18.62;76.75
18697;BME280;22617;43.690;27.956;2023-05-25T10:48:49;98850.94;;;18.69;79.12
18697;BME280;22617;43.690;27.956;2023-05-25T10:53:58;98863.69;;;18.58;78.92
18697;BME280;22617;43.690;27.956;2023-05-25T10:59:03;98875.25;;;18.55;80.69
18697;BME280;22617;43.690;27.956;2023-05-25T11:04:14;98870.44;;;18.42;80.55
18697;BME280;22617;43.690;27.956;2023-05-25T11:09:26;98861.72;;;18.40;80.97
18697;BME280;22617;43.690;27.956;2023-05-25T11:14:31;98868.75;;;18.41;81.27
18697;BME280;22617;43.690;27.956;2023-05-25T11:19:40;98870.00;;;18.30;82.07
18697;BME280;22617;43.690;27.956;2023-05-25T11:24:45;98856.78;;;18.07;82.70
18697;BME280;22617;43.690;27.956;2023-05-25T11:29:49;98860.66;;;18.22;82.61
18697;BME280;22617;43.690;27.956;2023-05-25T11:34:55;98870.00;;;18.30;81.84
18697;BME280;22617;43.690;27.956;2023-05-25T11:40:00;98880.34;;;18.37;82.19
18697;BME280;22617;43.690;27.956;2023-05-25T11:45:05;98908.19;;;18.44;83.65
18697;BME280;22617;43.690;27.956;2023-05-25T11:50:15;98903.47;;;18.28;83.91
18697;BME280;22617;43.690;27.956;2023-05-25T11:55:19;98887.44;;;18.35;84.50
18697;BME280;22617;43.690;27.956;2023-05-25T12:00:24;98888.91;;;18.42;84.86
18697;BME280;22617;43.690;27.956;2023-05-25T12:05:37;98901.28;;;18.41;84.45
18697;BME280;22617;43.690;27.956;2023-05-25T12:10:50;98899.81;;;18.33;84.38
18697;BME280;22617;43.690;27.956;2023-05-25T12:15:54;98919.66;;;18.19;84.38
18697;BME280;22617;43.690;27.956;2023-05-25T12:21:03;98916.31;;;18.14;84.35
18697;BME280;22617;43.690;27.956;2023-05-25T12:26:10;98909.97;;;18.20;84.16
18697;BME280;22617;43.690;27.956;2023-05-25T12:31:21;98920.50;;;18.20;84.43
18697;BME280;22617;43.690;27.956;2023-05-25T12:36:40;98902.13;;;17.94;85.09
18697;BME280;22617;43.690;27.956;2023-05-25T12:41:46;98891.34;;;17.75;85.83
18697;BME280;22617;43.690;27.956;2023-05-25T12:46:52;98882.44;;;17.79;86.22
18697;BME280;22617;43.690;27.956;2023-05-25T12:52:01;98862.84;;;17.86;86.08
18697;BME280;22617;43.690;27.956;2023-05-25T12:57:05;98852.13;;;17.91;86.57
18697;BME280;22617;43.690;27.956;2023-05-25T13:02:09;98821.50;;;18.10;86.52
18697;BME280;22617;43.690;27.956;2023-05-25T13:07:15;98809.34;;;18.29;84.38
18697;BME280;22617;43.690;27.956;2023-05-25T13:12:19;98780.50;;;18.24;83.57
18697;BME280;22617;43.690;27.956;2023-05-25T13:17:22;98770.28;;;18.39;85.25
18697;BME280;22617;43.690;27.956;2023-05-25T13:22:28;98771.69;;;18.47;83.41
18697;BME280;22617;43.690;27.956;2023-05-25T13:27:31;98762.72;;;18.95;82.50
18697;BME280;22617;43.690;27.956;2023-05-25T13:32:35;98756.56;;;19.16;82.46
18697;BME280;22617;43.690;27.956;2023-05-25T13:37:40;98746.31;;;19.29;80.48
18697;BME280;22617;43.690;27.956;2023-05-25T13:42:44;98744.59;;;19.68;80.43
18697;BME280;22617;43.690;27.956;2023-05-25T13:47:47;98732.34;;;20.05;80.56
18697;BME280;22617;43.690;27.956;2023-05-25T13:52:53;98723.63;;;20.02;78.64
18697;BME280;22617;43.690;27.956;2023-05-25T13:57:56;98723.69;;;19.62;79.27
18697;BME280;22617;43.690;27.956;2023-05-25T14:03:00;98738.44;;;19.68;80.91
18697;BME280;22617;43.690;27.956;2023-05-25T14:08:06;98715.66;;;19.65;81.14
18697;BME280;22617;43.690;27.956;2023-05-25T14:13:09;98713.06;;;19.64;79.28
18697;BME280;22617;43.690;27.956;2023-05-25T14:18:13;98697.88;;;19.48;80.08
18697;BME280;22617;43.690;27.956;2023-05-25T14:23:18;98692.41;;;19.72;80.64
18697;BME280;22617;43.690;27.956;2023-05-25T14:28:22;98690.56;;;20.11;78.88
18697;BME280;22617;43.690;27.956;2023-05-25T14:33:25;98687.97;;;20.28;77.01
18697;BME280;22617;43.690;27.956;2023-05-25T14:38:30;98684.38;;;20.48;76.27
18697;BME280;22617;43.690;27.956;2023-05-25T14:43:34;98686.72;;;20.37;76.37
18697;BME280;22617;43.690;27.956;2023-05-25T14:48:38;98687.00;;;20.31;76.40
18697;BME280;22617;43.690;27.956;2023-05-25T14:53:43;98685.41;;;20.27;77.79
18697;BME280;22617;43.690;27.956;2023-05-25T14:58:47;98681.53;;;20.34;77.56
18697;BME280;22617;43.690;27.956;2023-05-25T15:03:51;98678.84;;;20.35;77.32
18697;BME280;22617;43.690;27.956;2023-05-25T15:08:56;98695.94;;;20.28;77.52
18697;BME280;22617;43.690;27.956;2023-05-25T15:14:00;98697.06;;;20.41;78.77
18697;BME280;22617;43.690;27.956;2023-05-25T15:19:03;98700.72;;;20.39;76.98
18697;BME280;22617;43.690;27.956;2023-05-25T15:24:14;98709.00;;;20.50;77.02
18697;BME280;22617;43.690;27.956;2023-05-25T15:29:17;98717.41;;;20.58;76.64
18697;BME280;22617;43.690;27.956;2023-05-25T15:34:21;98736.56;;;20.46;76.65
18697;BME280;22617;43.690;27.956;2023-05-25T15:39:26;98739.69;;;20.54;77.99
18697;BME280;22617;43.690;27.956;2023-05-25T15:44:30;98740.34;;;20.22;77.00
18697;BME280;22617;43.690;27.956;2023-05-25T15:49:33;98744.94;;;19.99;78.83
18697;BME280;22617;43.690;27.956;2023-05-25T15:54:39;98742.81;;;19.69;78.22
18697;BME280;22617;43.690;27.956;2023-05-25T15:59:43;98742.75;;;19.70;79.92
18697;BME280;22617;43.690;27.956;2023-05-25T16:04:46;98743.63;;;19.71;81.27
18697;BME280;22617;43.690;27.956;2023-05-25T16:09:51;98739.03;;;19.74;82.68
18697;BME280;22617;43.690;27.956;2023-05-25T16:14:55;98735.47;;;19.75;83.34
18697;BME280;22617;43.690;27.956;2023-05-25T16:19:58;98735.06;;;19.84;83.22
18697;BME280;22617;43.690;27.956;2023-05-25T16:25:05;98744.38;;;19.73;82.05
18697;BME280;22617;43.690;27.956;2023-05-25T16:30:09;98733.09;;;19.69;82.37
18697;BME280;22617;43.690;27.956;2023-05-25T16:35:14;98732.50;;;19.63;82.88
18697;BME280;22617;43.690;27.956;2023-05-25T16:40:19;98739.88;;;19.56;83.11
18697;BME280;22617;43.690;27.956;2023-05-25T16:45:23;98732.47;;;19.44;83.91
18697;BME280;22617;43.690;27.956;2023-05-25T16:50:27;98730.41;;;19.30;84.80
18697;BME280;22617;43.690;27.956;2023-05-25T16:55:32;98723.84;;;19.18;85.21
18697;BME280;22617;43.690;27.956;2023-05-25T17:00:36;98730.19;;;19.14;84.96
18697;BME280;22617;43.690;27.956;2023-05-25T17:05:39;98720.56;;;19.13;84.61
18697;BME280;22617;43.690;27.956;2023-05-25T17:10:47;98737.66;;;19.05;84.15
18697;BME280;22617;43.690;27.956;2023-05-25T17:15:51;98735.41;;;18.96;84.13
18697;BME280;22617;43.690;27.956;2023-05-25T17:20:55;98739.16;;;18.90;84.87
18697;BME280;22617;43.690;27.956;2023-05-25T17:26:01;98756.75;;;18.69;85.83
18697;BME280;22617;43.690;27.956;2023-05-25T17:31:04;98768.66;;;18.58;86.11
18697;BME280;22617;43.690;27.956;2023-05-25T17:36:10;98770.97;;;18.44;86.29
18697;BME280;22617;43.690;27.956;2023-05-25T17:41:15;98776.22;;;18.44;86.00
18697;BME280;22617;43.690;27.956;2023-05-25T17:46:19;98780.97;;;18.36;86.09
18697;BME280;22617;43.690;27.956;2023-05-25T17:51:23;98775.22;;;18.24;86.54
18697;BME280;22617;43.690;27.956;2023-05-25T17:56:28;98782.41;;;18.21;86.69
18697;BME280;22617;43.690;27.956;2023-05-25T18:01:33;98788.81;;;18.14;86.76
18697;BME280;22617;43.690;27.956;2023-05-25T18:06:36;98795.47;;;18.01;86.98
18697;BME280;22617;43.690;27.956;2023-05-25T18:11:42;98797.44;;;17.96;87.42
18697;BME280;22617;43.690;27.956;2023-05-25T18:16:45;98799.13;;;17.98;87.09
18697;BME280;22617;43.690;27.956;2023-05-25T18:21:49;98804.69;;;17.89;85.81
18697;BME280;22617;43.690;27.956;2023-05-25T18:26:54;98806.75;;;17.81;85.51
18697;BME280;22617;43.690;27.956;2023-05-25T18:31:59;98807.66;;;17.80;86.19
18697;BME280;22617;43.690;27.956;2023-05-25T18:37:02;98807.75;;;17.78;85.89
18697;BME280;22617;43.690;27.956;2023-05-25T18:42:07;98807.91;;;17.74;85.52
18697;BME280;22617;43.690;27.956;2023-05-25T18:47:11;98818.25;;;17.54;84.71
18697;BME280;22617;43.690;27.956;2023-05-25T18:52:14;98816.72;;;17.22;86.56
18697;BME280;22617;43.690;27.956;2023-05-25T18:57:19;98826.34;;;17.23;86.47
18697;BME280;22617;43.690;27.956;2023-05-25T19:02:23;98825.28;;;17.28;86.82
18697;BME280;22617;43.690;27.956;2023-05-25T19:07:28;98830.25;;;17.37;86.36
18697;BME280;22617;43.690;27.956;2023-05-25T19:12:34;98833.63;;;17.41;85.51
18697;BME280;22617;43.690;27.956;2023-05-25T19:17:39;98832.63;;;17.19;84.98
18697;BME280;22617;43.690;27.956;2023-05-25T19:22:42;98832.66;;;17.17;85.33
18697;BME280;22617;43.690;27.956;2023-05-25T19:27:48;98838.00;;;17.16;85.01
18697;BME280;22617;43.690;27.956;2023-05-25T19:32:52;98832.97;;;17.08;84.93
18697;BME280;22617;43.690;27.956;2023-05-25T19:37:56;98841.81;;;17.07;84.86
18697;BME280;22617;43.690;27.956;2023-05-25T19:43:04;98834.91;;;17.03;84.73
18697;BME280;22617;43.690;27.956;2023-05-25T19:48:07;98829.16;;;16.92;84.63
18697;BME280;22617;43.690;27.956;2023-05-25T19:53:11;98837.28;;;16.84;84.60
18697;BME280;22617;43.690;27.956;2023-05-25T19:58:16;98840.88;;;16.82;84.87
18697;BME280;22617;43.690;27.956;2023-05-25T20:03:20;98845.38;;;16.78;85.09
18697;BME280;22617;43.690;27.956;2023-05-25T20:08:23;98839.28;;;16.76;84.92
18697;BME280;22617;43.690;27.956;2023-05-25T20:13:29;98836.09;;;16.67;85.00
18697;BME280;22617;43.690;27.956;2023-05-25T20:18:33;98840.75;;;16.57;85.30
18697;BME280;22617;43.690;27.956;2023-05-25T20:23:37;98847.09;;;16.50;85.30
18697;BME280;22617;43.690;27.956;2023-05-25T20:28:42;98849.03;;;16.45;85.48
18697;BME280;22617;43.690;27.956;2023-05-25T20:33:45;98839.72;;;16.33;86.16
18697;BME280;22617;43.690;27.956;2023-05-25T20:38:49;98825.56;;;16.37;86.64
18697;BME280;22617;43.690;27.956;2023-05-25T20:43:53;98817.47;;;16.43;87.18
18697;BME280;22617;43.690;27.956;2023-05-25T20:48:57;98805.22;;;16.42;86.76
18697;BME280;22617;43.690;27.956;2023-05-25T20:54:01;98811.47;;;16.40;86.52
18697;BME280;22617;43.690;27.956;2023-05-25T20:59:06;98813.28;;;16.38;86.71
18697;BME280;22617;43.690;27.956;2023-05-25T21:04:10;98821.06;;;16.41;86.48
18697;BME280;22617;43.690;27.956;2023-05-25T21:09:13;98823.63;;;16.44;86.45
18697;BME280;22617;43.690;27.956;2023-05-25T21:14:18;98816.91;;;16.34;86.23
18697;BME280;22617;43.690;27.956;2023-05-25T21:19:22;98810.53;;;16.41;86.67
18697;BME280;22617;43.690;27.956;2023-05-25T21:24:26;98821.16;;;16.38;86.48
18697;BME280;22617;43.690;27.956;2023-05-25T21:29:30;98814.84;;;16.43;86.35
18697;BME280;22617;43.690;27.956;2023-05-25T21:34:34;98800.38;;;16.30;86.49
18697;BME280;22617;43.690;27.956;2023-05-25T21:39:38;98790.88;;;16.25;86.87
18697;BME280;22617;43.690;27.956;2023-05-25T21:44:43;98786.66;;;16.19;87.05
18697;BME280;22617;43.690;27.956;2023-05-25T21:49:47;98781.44;;;16.18;87.16
18697;BME280;22617;43.690;27.956;2023-05-25T21:54:53;98775.00;;;15.98;87.95
18697;BME280;22617;43.690;27.956;2023-05-25T21:59:59;98784.72;;;15.96;88.75
18697;BME280;22617;43.690;27.956;2023-05-25T22:05:06;98790.19;;;15.89;88.73
18697;BME280;22617;43.690;27.956;2023-05-25T22:10:10;98782.44;;;15.84;88.72
18697;BME280;22617;43.690;27.956;2023-05-25T22:15:15;98787.78;;;15.81;89.12
18697;BME280;22617;43.690;27.956;2023-05-25T22:20:19;98793.31;;;15.72;89.03
18697;BME280;22617;43.690;27.956;2023-05-25T22:25:24;98799.50;;;15.69;89.21
18697;BME280;22617;43.690;27.956;2023-05-25T22:30:29;98794.94;;;15.76;89.48
18697;BME280;22617;43.690;27.956;2023-05-25T22:35:32;98795.19;;;15.67;88.91
18697;BME280;22617;43.690;27.956;2023-05-25T22:40:36;98795.88;;;15.74;88.82
18697;BME280;22617;43.690;27.956;2023-05-25T22:45:41;98799.75;;;15.60;88.98
18697;BME280;22617;43.690;27.956;2023-05-25T22:50:45;98791.88;;;15.60;88.92
18697;BME280;22617;43.690;27.956;2023-05-25T22:55:49;98793.75;;;15.55;89.19
18697;BME280;22617;43.690;27.956;2023-05-25T23:00:55;98795.59;;;15.53;88.96
18697;BME280;22617;43.690;27.956;2023-05-25T23:05:59;98797.25;;;15.56;89.09
18697;BME280;22617;43.690;27.956;2023-05-25T23:11:02;98791.22;;;15.52;88.76
18697;BME280;22617;43.690;27.956;2023-05-25T23:16:08;98796.44;;;15.54;88.84
18697;BME280;22617;43.690;27.956;2023-05-25T23:21:16;98790.13;;;15.59;88.62
18697;BME280;22617;43.690;27.956;2023-05-25T23:26:20;98795.34;;;15.61;88.40
18697;BME280;22617;43.690;27.956;2023-05-25T23:31:25;98789.34;;;15.57;88.81
18697;BME280;22617;43.690;27.956;2023-05-25T23:36:28;98790.25;;;15.55;88.96
18697;BME280;22617;43.690;27.956;2023-05-25T23:41:32;98772.59;;;15.60;89.10
18697;BME280;22617;43.690;27.956;2023-05-25T23:46:37;98769.06;;;15.62;89.52
18697;BME280;22617;43.690;27.956;2023-05-25T23:51:41;98768.31;;;15.57;89.82
18697;BME280;22617;43.690;27.956;2023-05-25T23:56:44;98767.56;;;15.54;89.73
